Smith Center, Kansas
Current Conditions -  °F | °C
As of 11:15 AM on Sunday 21 Dec 2014 (Local Time) from KHDE Reporting Station
Moderate Fog Moderate Fog  
Wind Chill: 20°   Ceiling: 100
Heat Index: 32°   Visibility: 0.5mi
Dew Point: 31°   Wind: 21mph
Humidity: 96%   Direction: 190°S
Pressure: 29.73"   Gusts: 29mph
Location:  39.78°N, 98.79°W
Report Text: KHDE 211715Z AUTO 19018G25KT 1/2SM FG OVC001 00/00 A2973 RMK AO2 T00021003
Loading
Personal Weather Stations






























Interactive Weather Map New forecast layout! Learn more

10-Day Weather Forecast

Advertisements
Track Severe Weather on mobile